Pagrindinis puslapis
METAR-TAF:

METAR-TAF

Oro uostai :

Praha, Čekija

platuma: 50-12-59N, ilguma: 014-23-42E, Aukštis: 280 m

Dabartinis oras

Ataskaita buvo paskelbta 7 valandos ir 20 minutes, ne 13:00 UTC
Vėjas 7 kt iš Vakarų/Pietvakarių
Temperatūra 10°C
Drėgmė 82%
Slėgis 1012 hPa
Matomumas 10 km arba daugiau
Išsisklaidę debesys ne aukštis 1400 ft
Su prošvaistėmis ne aukštis 9000 ft

METAR: LKVO 271300Z 25007KT 9999 SCT014 BKN090 10/07 Q1012

Laikas: 21:20 (20:20 UTC)


TAF: trūkstamas

Orai ataskaitas ir orų prognozės (METAR, TAF).

turimą stotys yra geltonos ir raudonos taškus žemėlapyje.

Perkelti pele per norėdami pamatyti stoties vardą.

Tada spustelėkite, norėdami matyti oro stebėjimo ir prognozės.

Norėdami pakeisti žemėlapį: spustelėkite ant žalios mygtukų su juodo kryžiaus žemyn,; žalią mygtuką su brūkšneliu, jei norite nutolinti; arba žalių rodyklių gretimoms žemėlapius.


METAR-TAF: